createdAt,value
2024-02-15T00:00:22.598Z,477.00
2024-02-15T00:01:22.607Z,481.00
2024-02-15T00:02:22.670Z,475.00
2024-02-15T00:03:22.806Z,474.00
2024-02-15T00:04:22.866Z,533.00
2024-02-15T00:05:22.789Z,457.00
2024-02-15T00:06:22.791Z,464.00
2024-02-15T00:07:22.844Z,472.00
2024-02-15T00:08:22.897Z,476.00
2024-02-15T00:09:22.901Z,477.00
2024-02-15T00:10:22.982Z,472.00
2024-02-15T00:11:22.992Z,473.00
2024-02-15T00:12:23.053Z,467.00
2024-02-15T00:13:23.086Z,476.00
2024-02-15T00:14:23.094Z,474.00
2024-02-15T00:15:23.118Z,474.00
2024-02-15T00:16:23.148Z,476.00
2024-02-15T00:17:23.197Z,495.00
2024-02-15T00:18:23.335Z,453.00
2024-02-15T00:19:23.331Z,453.00
2024-02-15T00:20:23.321Z,473.00
2024-02-15T00:21:23.385Z,444.00
2024-02-15T00:22:23.431Z,474.00
2024-02-15T00:23:23.473Z,471.00
2024-02-15T00:24:23.534Z,476.00
2024-02-15T00:25:23.607Z,465.00
2024-02-15T00:26:23.673Z,479.00
2024-02-15T00:27:23.745Z,465.00
2024-02-15T00:28:23.774Z,452.00
2024-02-15T00:29:23.838Z,476.00
2024-02-15T00:30:24.169Z,468.00
2024-02-15T00:31:23.963Z,471.00
2024-02-15T00:32:24.009Z,485.00
2024-02-15T00:33:24.093Z,473.00
2024-02-15T00:34:24.210Z,471.00
2024-02-15T00:35:24.174Z,474.00
2024-02-15T00:36:24.183Z,478.00
2024-02-15T00:37:24.261Z,474.00
2024-02-15T00:38:24.290Z,476.00
2024-02-15T00:39:24.332Z,476.00
2024-02-15T00:40:24.359Z,476.00
2024-02-15T00:41:24.383Z,475.00
2024-02-15T00:42:24.389Z,476.00
2024-02-15T00:43:24.414Z,475.00
2024-02-15T00:44:24.492Z,475.00
2024-02-15T00:45:24.535Z,474.00
2024-02-15T00:46:24.486Z,473.00
2024-02-15T00:47:24.553Z,474.00
2024-02-15T00:48:24.694Z,474.00
2024-02-15T00:49:24.785Z,473.00
2024-02-15T00:50:24.878Z,477.00
2024-02-15T00:51:24.785Z,475.00
2024-02-15T00:52:24.932Z,477.00
2024-02-15T00:53:24.902Z,476.00
2024-02-15T00:54:24.919Z,476.00
2024-02-15T00:55:24.987Z,477.00
2024-02-15T00:56:25.021Z,476.00
2024-02-15T00:57:25.044Z,482.00
2024-02-15T00:58:25.096Z,473.00
2024-02-15T00:59:25.134Z,478.00
2024-02-15T01:00:25.190Z,478.00
2024-02-15T01:01:25.248Z,480.00
2024-02-15T01:02:25.348Z,483.00
2024-02-15T01:03:25.378Z,484.00
2024-02-15T01:04:25.417Z,493.00
2024-02-15T01:05:25.495Z,482.00
2024-02-15T01:06:25.526Z,484.00
2024-02-15T01:07:25.476Z,485.00
2024-02-15T01:08:25.539Z,485.00
2024-02-15T01:09:25.556Z,485.00
2024-02-15T01:10:25.582Z,481.00
2024-02-15T01:11:25.599Z,478.00
2024-02-15T01:12:25.661Z,482.00
2024-02-15T01:13:25.699Z,490.00
2024-02-15T01:14:25.715Z,490.00
2024-02-15T01:15:25.772Z,488.00
2024-02-15T01:16:25.851Z,484.00
2024-02-15T01:17:25.868Z,476.00
2024-02-15T01:18:25.978Z,477.00
2024-02-15T01:19:25.975Z,479.00
2024-02-15T01:20:26.017Z,474.00
2024-02-15T01:21:26.045Z,475.00
2024-02-15T01:22:26.095Z,476.00
2024-02-15T01:23:26.138Z,459.00
2024-02-15T01:24:26.177Z,467.00
2024-02-15T01:25:26.177Z,473.00
2024-02-15T01:26:26.237Z,476.00
2024-02-15T01:27:26.251Z,479.00
2024-02-15T01:28:26.341Z,477.00
2024-02-15T01:29:26.344Z,476.00
2024-02-15T01:30:26.365Z,476.00
2024-02-15T01:31:26.449Z,475.00
2024-02-15T01:32:26.534Z,473.00
2024-02-15T01:33:26.694Z,476.00
2024-02-15T01:34:26.724Z,472.00
2024-02-15T01:35:26.616Z,472.00
2024-02-15T01:36:26.680Z,477.00
2024-02-15T01:37:26.747Z,480.00
2024-02-15T01:38:26.765Z,468.00
2024-02-15T01:39:26.792Z,477.00
2024-02-15T01:40:26.799Z,475.00
2024-02-15T01:41:26.835Z,474.00
2024-02-15T01:42:26.909Z,476.00
2024-02-15T01:43:26.966Z,479.00
2024-02-15T01:44:27.042Z,477.00
2024-02-15T01:45:27.071Z,476.00
2024-02-15T01:46:27.090Z,478.00
2024-02-15T01:47:27.109Z,480.00
2024-02-15T01:48:27.256Z,480.00
2024-02-15T01:49:27.191Z,476.00
2024-02-15T01:50:28.058Z,472.00
2024-02-15T01:51:27.219Z,476.00
2024-02-15T01:52:27.286Z,475.00
2024-02-15T01:53:27.347Z,479.00
2024-02-15T01:54:27.409Z,468.00
2024-02-15T01:55:27.462Z,473.00
2024-02-15T01:56:27.498Z,470.00
2024-02-15T01:57:27.538Z,473.00
2024-02-15T01:58:27.561Z,474.00
2024-02-15T01:59:27.576Z,479.00
2024-02-15T02:00:27.648Z,480.00
2024-02-15T02:01:27.691Z,476.00
2024-02-15T02:02:27.720Z,479.00
2024-02-15T02:03:27.789Z,461.00
2024-02-15T02:04:27.770Z,466.00
2024-02-15T02:05:27.780Z,472.00
2024-02-15T02:06:27.845Z,472.00
2024-02-15T02:07:27.850Z,474.00
2024-02-15T02:08:28.059Z,475.00
2024-02-15T02:09:27.889Z,477.00
2024-02-15T02:10:27.888Z,480.00
2024-02-15T02:11:27.893Z,478.00
2024-02-15T02:12:27.903Z,480.00
2024-02-15T02:13:29.949Z,476.00
2024-02-15T02:14:27.936Z,479.00
2024-02-15T02:15:27.965Z,479.00
2024-02-15T02:16:27.930Z,477.00
2024-02-15T02:17:27.958Z,476.00
2024-02-15T02:18:28.000Z,479.00
2024-02-15T02:19:27.977Z,475.00
2024-02-15T02:20:28.056Z,475.00
2024-02-15T02:21:27.952Z,471.00
2024-02-15T02:22:28.000Z,474.00
2024-02-15T02:23:28.068Z,458.00
2024-02-15T02:24:27.939Z,464.00
2024-02-15T02:25:27.939Z,476.00
2024-02-15T02:26:27.967Z,468.00
2024-02-15T02:27:27.943Z,471.00
2024-02-15T02:28:27.948Z,477.00
2024-02-15T02:29:27.966Z,474.00
2024-02-15T02:30:27.967Z,479.00
2024-02-15T02:31:27.994Z,472.00
2024-02-15T02:32:27.984Z,482.00
2024-02-15T02:33:28.089Z,477.00
2024-02-15T02:34:28.027Z,467.00
2024-02-15T02:35:28.013Z,472.00
2024-02-15T02:36:28.102Z,477.00
2024-02-15T02:37:28.005Z,467.00
2024-02-15T02:38:28.012Z,476.00
2024-02-15T02:39:28.053Z,450.00
2024-02-15T02:40:28.003Z,466.00
2024-02-15T02:41:27.995Z,467.00
2024-02-15T02:42:27.993Z,471.00
2024-02-15T02:43:28.007Z,467.00
2024-02-15T02:44:27.996Z,472.00
2024-02-15T02:45:27.995Z,472.00
2024-02-15T02:46:27.998Z,480.00
2024-02-15T02:47:28.048Z,479.00
2024-02-15T02:48:28.089Z,466.00
2024-02-15T02:49:28.098Z,470.00
2024-02-15T02:50:27.997Z,475.00
2024-02-15T02:51:27.994Z,477.00
2024-02-15T02:52:28.041Z,478.00
2024-02-15T02:53:28.056Z,494.00
2024-02-15T02:54:28.009Z,458.00
2024-02-15T02:55:27.998Z,446.00
2024-02-15T02:56:28.043Z,454.00
2024-02-15T02:57:28.008Z,462.00
2024-02-15T02:58:28.059Z,462.00
2024-02-15T02:59:28.014Z,465.00
2024-02-15T03:00:28.016Z,477.00
2024-02-15T03:01:28.054Z,478.00
2024-02-15T03:02:28.028Z,477.00
2024-02-15T03:03:28.030Z,477.00
2024-02-15T03:04:28.059Z,475.00
2024-02-15T03:05:28.066Z,476.00
2024-02-15T03:06:28.164Z,480.00
2024-02-15T03:07:28.047Z,479.00
2024-02-15T03:08:28.034Z,479.00
2024-02-15T03:09:28.033Z,483.00
2024-02-15T03:10:28.098Z,485.00
2024-02-15T03:11:28.141Z,501.00
2024-02-15T03:12:28.170Z,498.00
2024-02-15T03:13:28.225Z,476.00
2024-02-15T03:14:28.249Z,479.00
2024-02-15T03:15:28.314Z,479.00
2024-02-15T03:16:28.320Z,489.00
2024-02-15T03:17:28.426Z,484.00
2024-02-15T03:18:28.505Z,486.00
2024-02-15T03:19:28.517Z,479.00
2024-02-15T03:20:28.563Z,476.00
2024-02-15T03:21:28.620Z,479.00
2024-02-15T03:22:28.690Z,478.00
2024-02-15T03:23:28.709Z,473.00
2024-02-15T03:24:28.783Z,469.00
2024-02-15T03:25:28.847Z,485.00
2024-02-15T03:26:28.861Z,478.00
2024-02-15T03:27:28.942Z,467.00
2024-02-15T03:28:28.920Z,464.00
2024-02-15T03:29:28.970Z,475.00
2024-02-15T03:30:29.021Z,472.00
2024-02-15T03:31:29.085Z,478.00
2024-02-15T03:32:29.137Z,480.00
2024-02-15T03:33:29.262Z,460.00
2024-02-15T03:34:29.271Z,489.00
2024-02-15T03:35:29.260Z,473.00
2024-02-15T03:36:29.298Z,478.00
2024-02-15T03:37:29.319Z,483.00
2024-02-15T03:38:29.389Z,489.00
2024-02-15T03:39:29.378Z,497.00
2024-02-15T03:40:29.467Z,496.00
2024-02-15T03:41:30.128Z,501.00
2024-02-15T03:42:29.504Z,486.00
2024-02-15T03:43:29.562Z,493.00
2024-02-15T03:44:29.653Z,490.00
2024-02-15T03:45:29.686Z,487.00
2024-02-15T03:46:29.692Z,493.00
2024-02-15T03:47:29.800Z,493.00
2024-02-15T03:48:29.912Z,494.00
2024-02-15T03:49:29.807Z,485.00
2024-02-15T03:50:29.927Z,484.00
2024-02-15T03:51:29.889Z,484.00
2024-02-15T03:52:29.904Z,477.00
2024-02-15T03:53:30.099Z,481.00
2024-02-15T03:54:30.037Z,487.00
2024-02-15T03:55:30.078Z,486.00
2024-02-15T03:56:30.162Z,487.00
2024-02-15T03:57:30.084Z,483.00
2024-02-15T03:58:30.114Z,484.00
2024-02-15T03:59:30.428Z,483.00
2024-02-15T04:00:30.192Z,484.00
2024-02-15T04:01:30.282Z,484.00
2024-02-15T04:02:30.455Z,482.00
2024-02-15T04:03:30.385Z,481.00
2024-02-15T04:04:30.441Z,481.00
2024-02-15T04:05:30.678Z,479.00
2024-02-15T04:06:30.543Z,477.00
2024-02-15T04:07:30.527Z,480.00
2024-02-15T04:08:30.597Z,482.00
2024-02-15T04:09:30.626Z,484.00
2024-02-15T04:10:30.696Z,484.00
2024-02-15T04:11:30.771Z,488.00
2024-02-15T04:12:30.832Z,487.00
2024-02-15T04:13:30.853Z,488.00
2024-02-15T04:14:30.891Z,489.00
2024-02-15T04:15:30.950Z,489.00
2024-02-15T04:16:31.052Z,491.00
2024-02-15T04:17:31.199Z,494.00
2024-02-15T04:18:31.231Z,498.00
2024-02-15T04:19:32.130Z,495.00
2024-02-15T04:20:31.243Z,489.00
2024-02-15T04:21:31.250Z,488.00
2024-02-15T04:22:32.108Z,486.00
2024-02-15T04:23:31.449Z,484.00
2024-02-15T04:24:31.406Z,487.00
2024-02-15T04:25:31.481Z,485.00
2024-02-15T04:26:31.578Z,475.00
2024-02-15T04:27:31.654Z,487.00
2024-02-15T04:28:31.651Z,489.00
2024-02-15T04:29:31.746Z,486.00
2024-02-15T04:30:31.750Z,488.00
2024-02-15T04:31:31.812Z,476.00
2024-02-15T04:32:31.915Z,484.00
2024-02-15T04:33:32.028Z,485.00
2024-02-15T04:34:32.128Z,491.00
2024-02-15T04:35:32.156Z,490.00
2024-02-15T04:36:32.048Z,486.00
2024-02-15T04:37:32.118Z,468.00
2024-02-15T04:38:32.223Z,484.00
2024-02-15T04:39:32.279Z,486.00
2024-02-15T04:40:32.332Z,488.00
2024-02-15T04:41:32.424Z,488.00
2024-02-15T04:42:39.904Z,484.00
2024-02-15T04:43:39.948Z,487.00
2024-02-15T04:44:39.984Z,490.00
2024-02-15T04:45:40.013Z,493.00
2024-02-15T04:46:40.042Z,495.00
2024-02-15T04:47:40.191Z,494.00
2024-02-15T04:48:40.174Z,492.00
2024-02-15T04:49:40.178Z,492.00
2024-02-15T04:50:40.248Z,491.00
2024-02-15T04:51:40.223Z,490.00
2024-02-15T04:52:40.285Z,491.00
2024-02-15T04:53:40.402Z,490.00
2024-02-15T04:54:40.321Z,488.00
2024-02-15T04:55:40.331Z,491.00
2024-02-15T04:56:40.432Z,494.00
2024-02-15T04:57:40.442Z,494.00
2024-02-15T04:58:40.911Z,491.00
2024-02-15T04:59:40.560Z,491.00
2024-02-15T05:00:40.608Z,491.00
2024-02-15T05:01:40.619Z,489.00
2024-02-15T05:02:40.646Z,492.00
2024-02-15T05:03:40.702Z,492.00
2024-02-15T05:04:40.740Z,493.00
2024-02-15T05:05:40.919Z,499.00
2024-02-15T05:06:40.850Z,495.00
2024-02-15T05:07:41.278Z,491.00
2024-02-15T05:08:40.942Z,490.00
2024-02-15T05:09:40.968Z,489.00
2024-02-15T05:10:40.975Z,481.00
2024-02-15T05:11:41.047Z,477.00
2024-02-15T05:12:41.235Z,480.00
2024-02-15T05:13:41.145Z,478.00
2024-02-15T05:14:41.230Z,479.00
2024-02-15T05:15:41.218Z,468.00
2024-02-15T05:16:41.242Z,457.00
2024-02-15T05:17:41.334Z,504.00
2024-02-15T05:18:41.489Z,459.00
2024-02-15T05:19:41.329Z,463.00
2024-02-15T05:20:41.340Z,466.00
2024-02-15T05:21:41.356Z,483.00
2024-02-15T05:22:42.315Z,474.00
2024-02-15T05:23:41.505Z,492.00
2024-02-15T05:24:41.589Z,495.00
2024-02-15T05:25:41.577Z,483.00
2024-02-15T05:26:41.654Z,484.00
2024-02-15T05:27:41.605Z,480.00
2024-02-15T05:28:41.682Z,482.00
2024-02-15T05:29:41.658Z,487.00
2024-02-15T05:30:41.735Z,494.00
2024-02-15T05:31:41.788Z,493.00
2024-02-15T05:32:41.932Z,492.00
2024-02-15T05:33:42.004Z,494.00
2024-02-15T05:34:42.327Z,493.00
2024-02-15T05:35:41.990Z,492.00
2024-02-15T05:36:42.103Z,494.00
2024-02-15T05:37:42.045Z,495.00
2024-02-15T05:38:42.080Z,490.00
2024-02-15T05:39:42.054Z,491.00
2024-02-15T05:40:42.128Z,492.00
2024-02-15T05:41:42.162Z,494.00
2024-02-15T05:42:42.078Z,492.00
2024-02-15T05:43:42.104Z,493.00
2024-02-15T05:44:42.254Z,492.00
2024-02-15T05:45:42.362Z,494.00
2024-02-15T05:46:42.251Z,501.00
2024-02-15T05:47:42.384Z,499.00
2024-02-15T05:48:42.429Z,498.00
2024-02-15T05:49:42.376Z,496.00
2024-02-15T05:50:42.340Z,496.00
2024-02-15T05:51:45.069Z,493.00
2024-02-15T05:52:42.337Z,490.00
2024-02-15T05:53:42.360Z,490.00
2024-02-15T05:54:42.353Z,488.00
2024-02-15T05:55:42.448Z,500.00
2024-02-15T05:56:42.412Z,497.00
2024-02-15T05:57:42.368Z,491.00
2024-02-15T05:58:42.379Z,505.00
2024-02-15T05:59:42.435Z,504.00
2024-02-15T06:00:42.623Z,503.00
2024-02-15T06:01:42.397Z,507.00
2024-02-15T06:02:42.420Z,511.00
2024-02-15T06:03:42.521Z,491.00
2024-02-15T06:04:42.550Z,508.00
2024-02-15T06:05:42.619Z,511.00
2024-02-15T06:06:42.531Z,511.00
2024-02-15T06:08:42.463Z,517.00
2024-02-15T06:09:42.388Z,518.00
2024-02-15T06:10:42.384Z,518.00
2024-02-15T06:11:42.379Z,518.00
2024-02-15T06:12:42.398Z,519.00
2024-02-15T06:13:42.423Z,517.00
2024-02-15T06:14:42.484Z,519.00
2024-02-15T06:15:42.385Z,519.00
2024-02-15T06:16:42.400Z,520.00
2024-02-15T06:17:42.442Z,522.00
2024-02-15T06:18:42.599Z,519.00
2024-02-15T06:19:42.444Z,516.00
2024-02-15T06:20:42.513Z,518.00
2024-02-15T06:21:42.400Z,519.00
2024-02-15T06:22:42.435Z,518.00
2024-02-15T06:23:42.474Z,519.00
2024-02-15T06:24:42.432Z,521.00
2024-02-15T06:25:42.444Z,519.00
2024-02-15T06:26:44.232Z,521.00
2024-02-15T06:27:42.658Z,524.00
2024-02-15T06:28:42.411Z,524.00
2024-02-15T06:29:42.491Z,527.00
2024-02-15T06:30:42.407Z,528.00
2024-02-15T06:31:42.424Z,530.00
2024-02-15T06:32:42.539Z,529.00
2024-02-15T06:33:42.552Z,527.00
2024-02-15T06:34:42.500Z,527.00
2024-02-15T06:35:43.431Z,523.00
2024-02-15T06:36:42.409Z,522.00
2024-02-15T06:37:42.427Z,520.00
2024-02-15T06:38:42.496Z,518.00
2024-02-15T06:39:43.391Z,522.00
2024-02-15T06:40:42.435Z,526.00
2024-02-15T06:41:42.608Z,529.00
2024-02-15T06:42:42.437Z,528.00
2024-02-15T06:43:42.530Z,527.00
2024-02-15T06:44:42.588Z,525.00
2024-02-15T06:45:43.379Z,521.00
2024-02-15T06:46:42.588Z,521.00
2024-02-15T06:47:42.537Z,521.00
2024-02-15T06:48:42.593Z,522.00
2024-02-15T06:49:42.662Z,522.00
2024-02-15T06:50:42.678Z,521.00
2024-02-15T06:51:42.531Z,524.00
2024-02-15T06:52:42.472Z,522.00
2024-02-15T06:53:43.464Z,521.00
2024-02-15T06:54:42.520Z,521.00
2024-02-15T06:55:42.509Z,519.00
2024-02-15T06:56:42.574Z,523.00
2024-02-15T06:57:42.470Z,524.00
2024-02-15T06:58:42.617Z,523.00
2024-02-15T06:59:42.507Z,522.00
2024-02-15T07:00:42.582Z,524.00
2024-02-15T07:01:42.562Z,520.00
2024-02-15T07:02:42.543Z,525.00
2024-02-15T07:03:42.667Z,520.00
2024-02-15T07:04:42.756Z,517.00
2024-02-15T07:05:42.921Z,504.00
2024-02-15T07:06:42.784Z,508.00
2024-02-15T07:07:42.750Z,508.00
2024-02-15T07:08:42.921Z,510.00
2024-02-15T07:09:42.897Z,518.00
2024-02-15T07:10:42.895Z,518.00
2024-02-15T07:11:43.011Z,517.00
2024-02-15T07:12:43.001Z,516.00
2024-02-15T07:13:43.417Z,518.00
2024-02-15T07:14:43.180Z,521.00
2024-02-15T07:15:43.212Z,522.00
2024-02-15T07:16:43.162Z,543.00
2024-02-15T07:17:43.341Z,524.00
2024-02-15T07:18:43.280Z,525.00
2024-02-15T07:19:43.223Z,530.00
2024-02-15T07:20:43.287Z,517.00
2024-02-15T07:21:43.320Z,511.00
2024-02-15T07:22:43.378Z,535.00
2024-02-15T07:23:43.471Z,506.00
2024-02-15T07:24:43.457Z,510.00
2024-02-15T07:25:43.498Z,511.00
2024-02-15T07:26:43.533Z,521.00
2024-02-15T07:27:43.518Z,489.00
2024-02-15T07:28:43.542Z,488.00
2024-02-15T07:29:43.575Z,491.00
2024-02-15T07:30:43.634Z,500.00
2024-02-15T07:31:43.914Z,501.00
2024-02-15T07:32:43.750Z,482.00
2024-02-15T07:33:43.936Z,493.00
2024-02-15T07:34:43.837Z,504.00
2024-02-15T07:35:43.898Z,508.00
2024-02-15T07:36:43.918Z,508.00
2024-02-15T07:37:43.952Z,500.00
2024-02-15T07:38:44.031Z,527.00
2024-02-15T07:39:44.051Z,489.00
2024-02-15T07:40:44.149Z,505.00
2024-02-15T07:41:44.157Z,514.00
2024-02-15T07:42:44.207Z,504.00
2024-02-15T07:43:44.268Z,509.00
2024-02-15T07:44:44.384Z,486.00
2024-02-15T07:45:44.391Z,502.00
2024-02-15T07:46:44.502Z,508.00
2024-02-15T07:47:44.522Z,507.00
2024-02-15T07:48:44.558Z,512.00
2024-02-15T07:49:44.637Z,516.00
2024-02-15T07:50:44.588Z,513.00
2024-02-15T07:51:44.580Z,513.00
2024-02-15T07:52:44.649Z,516.00
2024-02-15T07:53:44.697Z,515.00
2024-02-15T07:54:44.711Z,517.00
2024-02-15T07:55:44.719Z,516.00
2024-02-15T07:56:44.796Z,516.00
2024-02-15T07:57:44.792Z,519.00
2024-02-15T07:58:46.784Z,521.00
2024-02-15T07:59:44.823Z,523.00
2024-02-15T08:00:44.888Z,517.00
2024-02-15T08:01:44.864Z,516.00
2024-02-15T08:02:44.934Z,509.00
2024-02-15T08:03:44.843Z,505.00
2024-02-15T08:04:44.880Z,520.00
2024-02-15T08:05:44.843Z,507.00
2024-02-15T08:06:44.913Z,482.00
2024-02-15T08:07:44.875Z,501.00
2024-02-15T08:08:45.048Z,504.00
2024-02-15T08:09:44.807Z,508.00
2024-02-15T08:10:44.828Z,463.00
2024-02-15T08:11:44.860Z,489.00
2024-02-15T08:12:44.817Z,501.00
2024-02-15T08:13:44.834Z,492.00
2024-02-15T08:14:44.880Z,501.00
2024-02-15T08:15:44.830Z,510.00
2024-02-15T08:16:44.849Z,456.00
2024-02-15T08:17:44.988Z,483.00
2024-02-15T08:18:45.066Z,500.00
2024-02-15T08:19:47.407Z,491.00
2024-02-15T08:20:44.885Z,444.00
2024-02-15T08:21:44.837Z,495.00
2024-02-15T08:22:45.004Z,489.00
2024-02-15T08:23:44.945Z,513.00
2024-02-15T08:24:44.832Z,502.00
2024-02-15T08:25:44.861Z,505.00
2024-02-15T08:26:44.883Z,493.00
2024-02-15T08:27:44.850Z,481.00
2024-02-15T08:28:44.853Z,509.00
2024-02-15T08:29:44.907Z,468.00
2024-02-15T08:30:44.858Z,477.00
2024-02-15T08:31:44.857Z,450.00
2024-02-15T08:32:44.997Z,498.00
2024-02-15T08:33:44.947Z,478.00
2024-02-15T08:34:44.917Z,474.00
2024-02-15T08:35:44.993Z,468.00
2024-02-15T08:36:44.906Z,478.00
2024-02-15T08:37:44.871Z,481.00
2024-02-15T08:38:44.943Z,487.00
2024-02-15T08:39:44.866Z,485.00
2024-02-15T08:40:44.860Z,514.00
2024-02-15T08:41:44.954Z,488.00
2024-02-15T08:42:44.861Z,521.00
2024-02-15T08:43:44.871Z,453.00
2024-02-15T08:44:44.907Z,481.00
2024-02-15T08:45:44.886Z,514.00
2024-02-15T08:46:44.895Z,485.00
2024-02-15T08:47:44.974Z,460.00
2024-02-15T08:48:45.036Z,475.00
2024-02-15T08:49:44.991Z,437.00
2024-02-15T08:50:44.961Z,504.00
2024-02-15T08:51:44.983Z,461.00
2024-02-15T08:52:44.889Z,487.00
2024-02-15T08:53:44.962Z,476.00
2024-02-15T08:54:44.892Z,493.00
2024-02-15T08:55:44.894Z,469.00
2024-02-15T08:56:44.967Z,473.00
2024-02-15T08:57:44.908Z,450.00
2024-02-15T08:58:44.931Z,429.00
2024-02-15T08:59:44.992Z,474.00
2024-02-15T09:00:45.023Z,480.00
2024-02-15T09:01:44.909Z,532.00
2024-02-15T09:02:44.969Z,436.00
2024-02-15T09:03:45.068Z,468.00
2024-02-15T09:04:45.554Z,465.00
2024-02-15T09:05:45.009Z,463.00
2024-02-15T09:06:45.024Z,464.00
2024-02-15T09:07:44.960Z,469.00
2024-02-15T09:08:44.947Z,468.00
2024-02-15T09:09:44.933Z,465.00
2024-02-15T09:10:44.934Z,484.00
2024-02-15T09:11:44.998Z,476.00
2024-02-15T09:12:44.977Z,489.00
2024-02-15T09:13:44.913Z,473.00
2024-02-15T09:14:44.954Z,478.00
2024-02-15T09:15:44.934Z,473.00
2024-02-15T09:16:44.941Z,472.00
2024-02-15T09:17:52.886Z,481.00
2024-02-15T09:18:53.070Z,466.00
2024-02-15T09:19:52.942Z,466.00
2024-02-15T09:20:52.845Z,473.00
2024-02-15T09:21:52.845Z,472.00
2024-02-15T09:22:52.865Z,464.00
2024-02-15T09:23:52.845Z,479.00
2024-02-15T09:24:52.954Z,455.00
2024-02-15T09:25:52.848Z,453.00
2024-02-15T09:26:52.887Z,455.00
2024-02-15T09:27:52.859Z,471.00
2024-02-15T09:28:52.853Z,471.00
2024-02-15T09:29:52.875Z,475.00
2024-02-15T09:30:53.018Z,471.00
2024-02-15T09:31:52.863Z,456.00
2024-02-15T09:32:52.931Z,495.00
2024-02-15T09:33:52.985Z,445.00
2024-02-15T09:34:52.958Z,458.00
2024-02-15T09:35:52.929Z,470.00
2024-02-15T09:36:52.964Z,454.00
2024-02-15T09:37:52.993Z,459.00
2024-02-15T09:38:53.047Z,457.00
2024-02-15T09:39:53.112Z,449.00
2024-02-15T09:40:53.061Z,453.00
2024-02-15T09:41:53.114Z,454.00
2024-02-15T09:42:53.094Z,462.00
2024-02-15T09:43:53.158Z,434.00
2024-02-15T09:44:53.237Z,461.00
2024-02-15T09:45:53.238Z,455.00
2024-02-15T09:46:53.316Z,449.00
2024-02-15T09:47:53.425Z,436.00
2024-02-15T09:48:53.536Z,470.00
2024-02-15T09:49:53.601Z,476.00
2024-02-15T09:50:53.570Z,452.00
2024-02-15T09:51:53.578Z,455.00
2024-02-15T09:52:53.701Z,438.00
2024-02-15T09:53:53.677Z,440.00
2024-02-15T09:54:53.710Z,454.00
2024-02-15T09:55:53.788Z,453.00
2024-02-15T09:56:53.876Z,451.00
2024-02-15T09:57:53.872Z,450.00
2024-02-15T09:58:53.905Z,467.00
2024-02-15T09:59:54.012Z,450.00
2024-02-15T10:00:54.072Z,471.00
2024-02-15T10:01:54.072Z,450.00
2024-02-15T10:02:54.435Z,452.00
2024-02-15T10:03:54.246Z,453.00
2024-02-15T10:04:54.184Z,427.00
2024-02-15T10:05:54.350Z,461.00
2024-02-15T10:06:54.314Z,469.00
2024-02-15T10:07:54.337Z,452.00
2024-02-15T10:08:54.431Z,448.00
2024-02-15T10:09:54.425Z,457.00
2024-02-15T10:10:54.529Z,439.00
2024-02-15T10:11:54.590Z,459.00
2024-02-15T10:12:54.562Z,445.00
2024-02-15T10:13:54.584Z,444.00
2024-02-15T10:14:54.676Z,420.00
2024-02-15T10:15:54.696Z,463.00
2024-02-15T10:16:54.745Z,462.00
2024-02-15T10:17:54.819Z,424.00
2024-02-15T10:18:55.007Z,448.00
2024-02-15T10:19:54.903Z,440.00
2024-02-15T10:20:54.911Z,458.00
2024-02-15T10:21:54.913Z,442.00
2024-02-15T10:22:55.029Z,446.00
2024-02-15T10:23:54.963Z,452.00
2024-02-15T10:24:54.981Z,452.00
2024-02-15T10:25:55.046Z,471.00
2024-02-15T10:26:55.167Z,435.00
2024-02-15T10:27:55.166Z,445.00
2024-02-15T10:28:55.236Z,477.00
2024-02-15T10:29:55.330Z,410.00
2024-02-15T10:30:55.332Z,458.00
2024-02-15T10:31:55.422Z,460.00
2024-02-15T10:32:58.153Z,439.00
2024-02-15T10:33:55.586Z,442.00
2024-02-15T10:34:55.451Z,453.00
2024-02-15T10:35:55.504Z,463.00
2024-02-15T10:36:55.478Z,468.00
2024-02-15T10:37:55.463Z,454.00
2024-02-15T10:38:55.486Z,474.00
2024-02-15T10:39:55.469Z,423.00
2024-02-15T10:40:55.482Z,452.00
2024-02-15T10:41:55.520Z,448.00
2024-02-15T10:42:55.583Z,457.00
2024-02-15T10:43:55.465Z,412.00
2024-02-15T10:44:55.573Z,441.00
2024-02-15T10:45:55.531Z,455.00
2024-02-15T10:46:55.475Z,450.00
2024-02-15T10:47:55.555Z,451.00
2024-02-15T10:48:55.683Z,448.00
2024-02-15T10:49:55.488Z,455.00
2024-02-15T10:50:55.518Z,416.00
2024-02-15T10:51:55.491Z,419.00
2024-02-15T10:52:55.508Z,439.00
2024-02-15T10:53:55.514Z,436.00
2024-02-15T10:54:55.474Z,459.00
2024-02-15T10:55:55.529Z,457.00
2024-02-15T10:56:55.545Z,408.00
2024-02-15T10:57:56.426Z,438.00
2024-02-15T10:58:55.493Z,455.00
2024-02-15T10:59:55.618Z,451.00
2024-02-15T11:00:55.534Z,437.00
2024-02-15T11:01:55.481Z,449.00
2024-02-15T11:02:55.540Z,443.00
2024-02-15T11:03:55.507Z,445.00
2024-02-15T11:04:55.489Z,438.00
2024-02-15T11:05:56.572Z,450.00
2024-02-15T11:06:55.587Z,441.00
2024-02-15T11:07:55.695Z,426.00
2024-02-15T11:08:55.567Z,418.00
2024-02-15T11:09:55.517Z,434.00
2024-02-15T11:10:55.521Z,448.00
2024-02-15T11:11:55.937Z,449.00
2024-02-15T11:12:55.519Z,441.00
2024-02-15T11:13:55.520Z,441.00
2024-02-15T11:14:55.560Z,443.00
2024-02-15T11:15:55.534Z,428.00
2024-02-15T11:16:55.544Z,422.00
2024-02-15T11:17:55.812Z,426.00
2024-02-15T11:18:55.610Z,426.00
2024-02-15T11:19:55.609Z,405.00
2024-02-15T11:20:55.543Z,409.00
2024-02-15T11:21:55.536Z,416.00
2024-02-15T11:22:55.547Z,441.00
2024-02-15T11:23:55.547Z,417.00
2024-02-15T11:24:55.538Z,448.00
2024-02-15T11:25:55.542Z,433.00
2024-02-15T11:26:55.575Z,447.00
2024-02-15T11:27:55.558Z,437.00
2024-02-15T11:28:55.577Z,434.00
2024-02-15T11:29:55.816Z,441.00
2024-02-15T11:30:55.547Z,428.00
2024-02-15T11:31:55.574Z,444.00
2024-02-15T11:32:55.684Z,432.00
2024-02-15T11:33:55.622Z,438.00
2024-02-15T11:34:55.622Z,433.00
2024-02-15T11:35:55.685Z,406.00
2024-02-15T11:36:55.663Z,416.00
2024-02-15T11:37:56.046Z,442.00
2024-02-15T11:38:55.722Z,439.00
2024-02-15T11:39:55.777Z,443.00
2024-02-15T11:40:55.832Z,444.00
2024-02-15T11:41:55.910Z,448.00
2024-02-15T11:42:55.919Z,455.00
2024-02-15T11:43:56.916Z,435.00
2024-02-15T11:44:56.064Z,443.00
2024-02-15T11:45:56.089Z,435.00
2024-02-15T11:46:56.154Z,445.00
2024-02-15T11:47:56.218Z,448.00
2024-02-15T11:48:56.328Z,448.00
2024-02-15T11:49:56.250Z,448.00
2024-02-15T11:50:56.835Z,458.00
2024-02-15T11:51:56.287Z,458.00
2024-02-15T11:52:56.330Z,435.00
2024-02-15T11:53:56.345Z,431.00
2024-02-15T11:54:56.357Z,462.00
2024-02-15T11:55:56.419Z,422.00
2024-02-15T11:56:56.477Z,435.00
2024-02-15T11:57:56.459Z,443.00
2024-02-15T11:58:56.527Z,449.00
2024-02-15T11:59:56.626Z,436.00
2024-02-15T12:00:56.739Z,405.00
2024-02-15T12:01:56.687Z,426.00
2024-02-15T12:02:56.787Z,439.00
2024-02-15T12:04:03.858Z,434.00
2024-02-15T12:04:57.798Z,417.00
2024-02-15T12:05:56.766Z,441.00
2024-02-15T12:06:56.782Z,436.00
2024-02-15T12:07:56.747Z,444.00
2024-02-15T12:08:56.959Z,440.00
2024-02-15T12:09:56.801Z,443.00
2024-02-15T12:10:56.794Z,442.00
2024-02-15T12:11:56.731Z,447.00
2024-02-15T12:12:56.746Z,439.00
2024-02-15T12:13:56.757Z,442.00
2024-02-15T12:14:56.810Z,443.00
2024-02-15T12:15:56.756Z,436.00
2024-02-15T12:16:56.768Z,437.00
2024-02-15T12:17:56.874Z,439.00
2024-02-15T12:18:57.016Z,441.00
2024-02-15T12:19:56.992Z,436.00
2024-02-15T12:20:56.954Z,443.00
2024-02-15T12:21:56.947Z,403.00
2024-02-15T12:22:56.982Z,442.00
2024-02-15T12:23:57.067Z,424.00
2024-02-15T12:24:57.035Z,428.00
2024-02-15T12:25:57.024Z,408.00
2024-02-15T12:26:57.001Z,426.00
2024-02-15T12:27:57.077Z,439.00
2024-02-15T12:28:57.087Z,439.00
2024-02-15T12:29:57.145Z,442.00